Time;durP1;ratioP1;P1;durP2;ratioP2;P2;SDS_P1;SDS_P2;PMS_P1;PMS_P2;Temp;Humidity;BMP_temperature;BMP_pressure;BME280_temperature;BME280_humidity;BME280_pressure;Samples;Min_cycle;Max_cycle;Signal;HPM_P1;HPM_P2
2023/08/22 00:02:11;;;;;;;23.50;5.33;;;29.50;53.30;;;;;;5037494;28;20215;-72
2023/08/22 00:04:39;;;;;;;27.50;5.60;;;29.50;53.30;;;;;;5028218;28;20288;-73
2023/08/22 00:07:07;;;;;;;30.73;6.07;;;29.50;53.40;;;;;;5031406;28;20307;-72
2023/08/22 00:09:34;;;;;;;32.10;6.20;;;29.50;53.30;;;;;;5032713;28;20217;-72
2023/08/22 00:12:01;;;;;;;45.83;7.40;;;29.40;53.30;;;;;;5046949;28;20202;-72
2023/08/22 00:14:28;;;;;;;25.00;5.93;;;29.50;53.40;;;;;;5048045;28;20208;-73
2023/08/22 00:16:55;;;;;;;33.37;6.07;;;29.40;53.30;;;;;;5045754;28;20649;-73
2023/08/22 00:19:22;;;;;;;25.57;5.80;;;29.50;53.30;;;;;;5036591;28;20208;-72
2023/08/22 00:21:49;;;;;;;37.80;6.97;;;29.40;53.30;;;;;;5045923;28;20299;-72
2023/08/22 00:24:17;;;;;;;33.37;6.40;;;29.40;53.30;;;;;;5047159;28;20285;-73
2023/08/22 00:26:44;;;;;;;22.10;5.20;;;29.40;53.30;;;;;;5047212;28;20239;-72
2023/08/22 00:29:11;;;;;;;35.83;6.40;;;29.40;53.30;;;;;;5045746;28;20211;-72
2023/08/22 00:31:38;;;;;;;21.97;5.10;;;29.40;53.30;;;;;;5047212;28;20211;-73
2023/08/22 00:34:05;;;;;;;25.70;5.70;;;29.40;53.30;;;;;;5044640;28;20202;-73
2023/08/22 00:36:32;;;;;;;37.63;6.67;;;29.40;53.40;;;;;;5036179;28;20287;-73
2023/08/22 00:38:59;;;;;;;27.60;5.73;;;29.40;53.40;;;;;;5047433;28;20302;-73
2023/08/22 00:41:27;;;;;;;24.37;5.73;;;29.40;53.40;;;;;;5029666;28;20316;-73
2023/08/22 00:43:54;;;;;;;23.90;5.80;;;29.40;53.40;;;;;;5027765;28;20270;-73
2023/08/22 00:46:23;;;;;;;29.90;5.77;;;29.40;53.40;;;;;;5027226;28;20211;-73
2023/08/22 00:48:50;;;;;;;21.87;5.33;;;29.40;53.40;;;;;;5029544;28;20237;-73
2023/08/22 00:51:18;;;;;;;34.17;6.60;;;29.40;53.40;;;;;;5031967;28;20216;-73
2023/08/22 00:53:46;;;;;;;30.47;5.77;;;29.40;53.40;;;;;;5047039;28;20287;-73
2023/08/22 00:56:13;;;;;;;43.70;7.07;;;29.40;53.40;;;;;;5045694;28;20239;-73
2023/08/22 00:58:41;;;;;;;22.40;5.43;;;29.30;53.30;;;;;;5042089;28;20272;-73
2023/08/22 01:01:09;;;;;;;30.77;6.33;;;29.40;53.40;;;;;;5037280;28;20206;-73
2023/08/22 01:03:35;;;;;;;41.20;7.20;;;29.40;53.40;;;;;;5031229;28;20239;-73
2023/08/22 01:06:09;;;;;;;27.70;5.87;;;29.30;53.30;;;;;;5046383;28;20302;-73
2023/08/22 01:08:39;;;;;;;33.80;6.50;;;29.30;53.40;;;;;;5046094;28;20302;-73
2023/08/22 01:11:25;;;;;;;33.97;6.50;;;29.40;53.40;;;;;;5048070;28;20257;-73
2023/08/22 01:13:56;;;;;;;25.70;5.57;;;29.30;53.40;;;;;;5042023;28;20232;-74
2023/08/22 01:16:25;;;;;;;33.93;6.20;;;29.30;53.40;;;;;;5032602;28;20231;-74
2023/08/22 01:18:52;;;;;;;25.03;5.87;;;29.30;53.40;;;;;;5030956;28;20300;-73
2023/08/22 01:21:21;;;;;;;29.73;5.80;;;29.30;53.40;;;;;;5030815;28;20213;-74
2023/08/22 01:23:49;;;;;;;24.90;5.67;;;29.30;53.40;;;;;;5031069;28;20267;-74
2023/08/22 01:26:16;;;;;;;28.23;5.47;;;29.30;53.40;;;;;;5030724;28;20291;-73
2023/08/22 01:28:46;;;;;;;42.23;7.43;;;29.30;53.40;;;;;;5031718;28;20227;-73
2023/08/22 01:31:22;;;;;;;30.17;6.27;;;29.30;53.40;;;;;;5036184;28;20204;-74
2023/08/22 01:33:54;;;;;;;23.73;5.63;;;29.30;53.40;;;;;;5043735;28;20283;-73
2023/08/22 01:36:22;;;;;;;30.97;5.93;;;29.30;53.40;;;;;;5044647;28;20208;-73
2023/08/22 01:38:51;;;;;;;33.53;6.27;;;29.30;53.40;;;;;;5049821;28;20287;-73
2023/08/22 01:41:20;;;;;;;42.77;6.93;;;29.30;53.40;;;;;;5034915;28;20201;-73
2023/08/22 01:43:47;;;;;;;21.90;5.03;;;29.30;53.40;;;;;;5049481;28;20586;-73
2023/08/22 01:46:13;;;;;;;32.60;6.33;;;29.30;53.40;;;;;;5036480;28;20205;-73
2023/08/22 01:48:40;;;;;;;26.93;5.73;;;29.20;53.30;;;;;;5046664;28;20200;-74
2023/08/22 01:51:07;;;;;;;27.57;5.53;;;29.30;53.40;;;;;;5047800;28;20228;-74
2023/08/22 01:53:34;;;;;;;34.43;6.37;;;29.20;53.30;;;;;;5046975;28;20302;-74
2023/08/22 01:56:03;;;;;;;35.87;6.13;;;29.20;53.30;;;;;;5040601;28;20244;-75
2023/08/22 01:58:30;;;;;;;42.47;7.07;;;29.20;53.30;;;;;;5035219;28;20204;-75
2023/08/22 02:00:57;;;;;;;28.27;6.00;;;29.20;53.30;;;;;;5030883;28;20205;-76
2023/08/22 02:03:25;;;;;;;21.23;5.40;;;29.20;53.30;;;;;;5038743;28;20834;-75
2023/08/22 02:05:53;;;;;;;19.77;5.00;;;29.20;53.30;;;;;;5030993;28;20214;-74
2023/08/22 02:08:19;;;;;;;24.07;5.33;;;29.20;53.30;;;;;;5033254;28;20326;-75
2023/08/22 02:10:47;;;;;;;29.50;5.97;;;29.20;53.30;;;;;;5048516;28;20220;-74
2023/08/22 02:13:15;;;;;;;27.23;5.53;;;29.20;53.30;;;;;;5049344;28;20672;-75
2023/08/22 02:15:42;;;;;;;21.73;5.30;;;29.20;53.30;;;;;;5049104;28;20288;-75
2023/08/22 02:18:09;;;;;;;37.50;6.77;;;29.20;53.30;;;;;;5046926;28;20209;-76
2023/08/22 02:20:36;;;;;;;23.63;5.03;;;29.10;53.30;;;;;;5043237;28;20200;-74
2023/08/22 02:23:03;;;;;;;46.80;7.57;;;29.10;53.30;;;;;;5043985;28;20234;-74
2023/08/22 02:25:32;;;;;;;46.00;7.53;;;29.10;53.30;;;;;;5049084;28;20644;-75
2023/08/22 02:27:59;;;;;;;39.63;6.70;;;29.10;53.30;;;;;;5033778;28;20813;-74
2023/08/22 02:30:27;;;;;;;23.40;5.53;;;29.10;53.30;;;;;;5048488;28;20308;-74
2023/08/22 02:32:54;;;;;;;34.07;6.47;;;29.10;53.80;;;;;;5049761;28;20568;-75
2023/08/22 02:35:21;;;;;;;26.70;5.47;;;29.10;53.30;;;;;;5048053;28;20338;-74
2023/08/22 02:37:50;;;;;;;26.33;6.00;;;29.10;53.30;;;;;;5040299;28;20205;-74
2023/08/22 02:40:17;;;;;;;22.13;5.40;;;29.10;53.30;;;;;;5029645;28;20205;-75
2023/08/22 02:42:44;;;;;;;27.07;5.43;;;29.10;53.30;;;;;;5029683;28;20212;-74
2023/08/22 02:45:11;;;;;;;21.47;5.23;;;29.10;53.30;;;;;;5046417;28;20342;-74
2023/08/22 02:47:39;;;;;;;25.10;5.53;;;29.10;53.30;;;;;;5042863;28;20714;-74
2023/08/22 02:50:07;;;;;;;28.40;5.60;;;29.10;53.30;;;;;;5029493;28;20211;-74
2023/08/22 02:52:35;;;;;;;26.17;5.37;;;29.10;53.30;;;;;;5032241;28;20204;-74
2023/08/22 02:55:03;;;;;;;25.80;5.57;;;29.10;53.30;;;;;;5030332;28;20219;-74
2023/08/22 02:57:29;;;;;;;30.67;6.20;;;29.00;53.20;;;;;;5029059;28;20693;-74
2023/08/22 02:59:56;;;;;;;27.77;5.73;;;29.00;53.20;;;;;;5029292;28;20307;-74
2023/08/22 03:02:23;;;;;;;32.87;6.37;;;29.00;53.20;;;;;;5029602;28;20205;-74
2023/08/22 03:04:52;;;;;;;27.97;5.80;;;29.00;53.80;;;;;;5035952;28;20228;-74
2023/08/22 03:07:19;;;;;;;27.73;5.47;;;29.00;53.20;;;;;;5036695;28;20200;-74
2023/08/22 03:09:46;;;;;;;37.90;6.67;;;29.00;53.20;;;;;;5046324;28;20224;-74
2023/08/22 03:12:13;;;;;;;25.30;5.60;;;29.00;53.20;;;;;;5034808;28;20292;-74
2023/08/22 03:14:40;;;;;;;32.27;6.30;;;29.00;53.30;;;;;;5029045;28;20279;-74
2023/08/22 03:17:07;;;;;;;25.83;5.23;;;29.00;53.20;;;;;;5029059;28;20291;-74
2023/08/22 03:19:34;;;;;;;47.07;7.40;;;29.00;53.20;;;;;;5028788;28;20211;-74
2023/08/22 03:22:02;;;;;;;35.80;6.50;;;29.00;53.20;;;;;;5042894;28;20365;-74
2023/08/22 03:24:30;;;;;;;27.60;5.60;;;29.00;53.20;;;;;;5048579;28;20231;-74
2023/08/22 03:26:57;;;;;;;25.20;5.60;;;29.00;53.20;;;;;;5029770;28;20713;-75
2023/08/22 03:29:24;;;;;;;24.27;5.47;;;28.90;53.10;;;;;;5029169;28;20271;-74
2023/08/22 03:31:51;;;;;;;24.93;5.53;;;28.90;53.10;;;;;;5027559;28;20283;-74
2023/08/22 03:34:18;;;;;;;24.00;5.47;;;28.90;53.10;;;;;;5042659;28;20286;-74
2023/08/22 03:36:45;;;;;;;27.03;5.70;;;28.90;53.10;;;;;;5048453;28;20204;-74
2023/08/22 03:39:13;;;;;;;33.33;6.10;;;28.80;53.10;;;;;;5037698;28;20292;-75
2023/08/22 03:41:40;;;;;;;24.80;5.60;;;28.90;53.10;;;;;;5028253;28;20287;-75
2023/08/22 03:44:07;;;;;;;57.33;8.67;;;28.90;53.10;;;;;;5029720;28;20224;-74
2023/08/22 03:46:34;;;;;;;41.73;6.73;;;28.90;53.10;;;;;;5027646;28;20578;-74
2023/08/22 03:49:01;;;;;;;22.87;5.63;;;28.80;53.10;;;;;;5028697;28;20190;-74
2023/08/22 03:51:27;;;;;;;23.10;5.53;;;28.90;53.10;;;;;;5028327;28;20208;-74
2023/08/22 03:53:55;;;;;;;26.93;5.50;;;28.80;53.10;;;;;;5028561;28;20303;-74
2023/08/22 03:56:23;;;;;;;30.23;6.13;;;28.80;53.10;;;;;;5028322;28;20205;-75
2023/08/22 03:58:50;;;;;;;22.23;5.23;;;28.80;53.10;;;;;;5028257;28;20197;-75
2023/08/22 04:01:17;;;;;;;25.97;5.90;;;28.80;53.10;;;;;;5028429;28;20221;-75
2023/08/22 04:03:44;;;;;;;32.73;6.27;;;28.80;53.10;;;;;;5030813;28;20228;-74
2023/08/22 04:06:11;;;;;;;26.37;5.50;;;28.80;53.10;;;;;;5027679;28;20215;-74
2023/08/22 04:08:38;;;;;;;24.43;5.70;;;28.80;53.10;;;;;;5027815;28;20332;-74
2023/08/22 04:11:05;;;;;;;21.77;5.40;;;28.80;53.10;;;;;;5031020;28;20196;-74
2023/08/22 04:13:33;;;;;;;25.80;5.97;;;28.80;53.10;;;;;;5046001;28;20231;-74
2023/08/22 04:16:00;;;;;;;22.00;5.57;;;28.80;53.10;;;;;;5047644;28;20574;-74
2023/08/22 04:18:27;;;;;;;51.03;7.73;;;28.80;53.10;;;;;;5046191;28;20206;-74
2023/08/22 04:20:54;;;;;;;28.73;6.00;;;28.80;53.10;;;;;;5047531;28;20204;-74
2023/08/22 04:23:21;;;;;;;27.97;5.70;;;28.80;52.90;;;;;;5027736;28;20205;-74
2023/08/22 04:25:48;;;;;;;27.83;5.87;;;28.80;53.10;;;;;;5027887;28;20211;-74
2023/08/22 04:28:14;;;;;;;33.47;6.53;;;28.80;53.10;;;;;;5027730;28;20305;-74
2023/08/22 04:30:43;;;;;;;34.60;6.50;;;28.70;53.00;;;;;;5027516;28;20205;-74
2023/08/22 04:33:10;;;;;;;25.87;5.50;;;28.80;53.10;;;;;;5027481;28;20556;-74
2023/08/22 04:35:37;;;;;;;40.67;6.87;;;28.70;53.00;;;;;;5027646;28;20284;-74
2023/08/22 04:38:05;;;;;;;27.03;5.87;;;28.70;53.00;;;;;;5047093;28;20222;-74
2023/08/22 04:40:31;;;;;;;49.30;8.10;;;28.80;53.10;;;;;;5045236;28;20214;-74
2023/08/22 04:42:58;;;;;;;29.23;6.13;;;28.70;53.00;;;;;;5041699;28;20283;-74
2023/08/22 04:45:25;;;;;;;31.50;6.37;;;28.70;53.00;;;;;;5034207;28;20222;-73
2023/08/22 04:47:53;;;;;;;22.65;5.93;;;28.70;53.00;;;;;;5049885;28;20429;-72
2023/08/22 04:50:20;;;;;;;21.33;5.23;;;28.60;53.50;;;;;;5051435;28;20637;-73
2023/08/22 04:52:47;;;;;;;23.23;5.30;;;28.60;53.50;;;;;;5049601;28;20795;-73
2023/08/22 04:55:14;;;;;;;21.13;5.10;;;28.70;53.50;;;;;;5045098;28;20203;-74
2023/08/22 04:57:41;;;;;;;25.73;5.77;;;28.70;53.30;;;;;;5041647;28;20215;-72
2023/08/22 05:00:09;;;;;;;25.83;5.50;;;28.70;53.90;;;;;;5049692;28;20195;-73
2023/08/22 05:02:36;;;;;;;44.30;7.40;;;28.70;53.00;;;;;;5046885;28;20200;-73
2023/08/22 05:05:07;;;;;;;23.00;5.50;;;28.70;53.00;;;;;;5046020;28;20230;-73
2023/08/22 05:07:34;;;;;;;25.63;5.47;;;28.70;53.00;;;;;;5050914;28;20200;-72
2023/08/22 05:10:02;;;;;;;13.60;4.67;;;28.70;53.00;;;;;;5051193;28;20206;-74
2023/08/22 05:12:29;;;;;;;22.20;5.13;;;28.70;53.00;;;;;;5051478;28;20287;-73
2023/08/22 05:14:57;;;;;;;27.20;5.93;;;28.70;53.00;;;;;;5047235;28;20324;-73
2023/08/22 05:17:24;;;;;;;25.77;6.00;;;28.70;53.00;;;;;;5047434;28;20204;-75
2023/08/22 05:19:51;;;;;;;23.80;5.83;;;28.70;53.00;;;;;;5045419;28;20201;-77
2023/08/22 05:22:19;;;;;;;23.40;5.70;;;28.70;53.00;;;;;;5030573;28;20292;-76
2023/08/22 05:24:46;;;;;;;27.57;5.67;;;28.70;53.00;;;;;;5030621;28;20228;-77
2023/08/22 05:27:13;;;;;;;45.07;7.93;;;28.70;53.00;;;;;;5033823;28;20204;-76
2023/08/22 05:29:40;;;;;;;36.37;6.73;;;28.60;52.90;;;;;;5030265;28;20571;-75
2023/08/22 05:32:07;;;;;;;39.03;6.87;;;28.60;52.90;;;;;;5036827;28;20214;-71
2023/08/22 05:34:34;;;;;;;28.47;6.73;;;28.60;52.90;;;;;;5031032;28;20203;-80
2023/08/22 05:37:02;;;;;;;34.40;7.00;;;28.60;52.90;;;;;;5029377;28;20657;-72
2023/08/22 05:40:11;;;;;;;30.50;7.27;;;28.60;52.40;;;;;;5100338;27;20660;-67
2023/08/22 05:42:38;;;;;;;42.87;8.67;;;28.60;53.00;;;;;;5094061;28;20194;-72
2023/08/22 05:45:06;;;;;;;36.03;7.57;;;28.50;52.90;;;;;;5083915;28;20199;-73
2023/08/22 05:47:33;;;;;;;30.77;7.63;;;28.50;52.90;;;;;;5083830;28;20199;-70
2023/08/22 05:50:00;;;;;;;29.93;7.03;;;28.50;52.90;;;;;;5102661;28;20206;-70
2023/08/22 05:52:28;;;;;;;30.30;7.47;;;28.50;52.90;;;;;;5083303;28;20289;-70
2023/08/22 05:54:55;;;;;;;23.97;6.87;;;28.50;52.70;;;;;;5085907;28;20264;-70
2023/08/22 05:57:23;;;;;;;75.73;11.13;;;28.40;52.60;;;;;;5076845;28;20209;-69
2023/08/22 05:59:50;;;;;;;43.53;8.50;;;28.40;52.60;;;;;;5084748;28;20292;-71
2023/08/22 06:02:17;;;;;;;27.67;6.53;;;28.40;52.70;;;;;;5084860;28;20279;-69
2023/08/22 06:04:46;;;;;;;25.97;6.80;;;28.40;53.20;;;;;;5081271;28;20203;-70
2023/08/22 06:07:13;;;;;;;46.70;8.80;;;28.30;53.10;;;;;;5086390;28;20260;-69
2023/08/22 06:09:40;;;;;;;29.20;6.90;;;28.30;52.50;;;;;;5091605;28;20314;-71
2023/08/22 06:12:08;;;;;;;32.23;7.33;;;28.30;52.60;;;;;;5103552;28;20200;-68
2023/08/22 06:14:37;;;;;;;20.27;6.20;;;28.30;52.60;;;;;;5082684;28;20268;-69
2023/08/22 06:17:04;;;;;;;28.67;7.07;;;28.20;52.50;;;;;;5083724;28;20703;-69
2023/08/22 06:19:30;;;;;;;29.83;7.47;;;28.20;52.60;;;;;;5102537;28;20305;-70
2023/08/22 06:21:57;;;;;;;39.47;7.73;;;28.20;52.60;;;;;;5091567;28;20202;-68
2023/08/22 06:24:24;;;;;;;26.47;6.67;;;28.10;52.60;;;;;;5092625;28;20191;-67
2023/08/22 06:26:51;;;;;;;28.70;7.00;;;28.10;52.60;;;;;;5084161;28;20202;-69
2023/08/22 06:29:18;;;;;;;54.60;9.90;;;28.10;52.60;;;;;;5081834;28;20213;-68
2023/08/22 06:31:46;;;;;;;21.80;6.97;;;28.00;52.60;;;;;;5079154;28;20278;-66
2023/08/22 06:34:13;;;;;;;22.70;7.27;;;28.00;52.60;;;;;;5093410;28;20206;-70
2023/08/22 06:36:40;;;;;;;20.93;6.47;;;28.00;52.60;;;;;;5098831;28;20305;-69
2023/08/22 06:39:07;;;;;;;35.57;8.03;;;28.00;52.60;;;;;;5100382;28;20222;-70
2023/08/22 06:41:35;;;;;;;37.80;8.27;;;27.90;52.50;;;;;;5076566;28;20636;-70
2023/08/22 06:44:07;;;;;;;31.70;8.20;;;27.90;52.50;;;;;;5071897;28;20195;-69
2023/08/22 06:46:35;;;;;;;21.60;6.67;;;27.90;53.10;;;;;;5090358;28;20199;-71
2023/08/22 06:49:04;;;;;;;45.20;8.43;;;27.90;52.50;;;;;;5083303;28;20186;-68
2023/08/22 06:51:31;;;;;;;26.67;7.17;;;27.90;52.60;;;;;;5084608;28;20196;-69
2023/08/22 06:53:58;;;;;;;32.57;7.33;;;27.80;52.60;;;;;;5078309;28;20198;-69
2023/08/22 06:56:25;;;;;;;35.63;7.97;;;27.80;52.80;;;;;;5078523;28;20200;-68
2023/08/22 06:58:52;;;;;;;31.10;7.53;;;27.80;52.90;;;;;;5072454;28;20242;-74
2023/08/22 07:01:20;;;;;;;26.50;7.50;;;27.80;53.00;;;;;;5080886;28;20201;-67
2023/08/22 07:03:46;;;;;;;50.53;10.00;;;27.70;52.90;;;;;;5071708;28;20562;-66
2023/08/22 07:06:15;;;;;;;27.57;7.47;;;27.70;52.90;;;;;;5076246;28;20199;-68
2023/08/22 07:08:42;;;;;;;25.67;7.67;;;27.70;53.00;;;;;;5077518;28;20231;-65
2023/08/22 07:11:09;;;;;;;28.73;7.93;;;27.70;53.20;;;;;;5085767;28;20210;-74
2023/08/22 07:13:37;;;;;;;22.70;7.83;;;27.70;53.20;;;;;;5079052;28;20290;-77
2023/08/22 07:16:05;;;;;;;32.27;8.57;;;27.70;53.30;;;;;;5084043;28;20203;-72
2023/08/22 07:18:31;;;;;;;30.77;9.10;;;27.70;53.30;;;;;;5068899;28;20584;-71
2023/08/22 07:21:04;;;;;;;61.00;11.07;;;27.70;53.40;;;;;;5069166;28;20209;-77
2023/08/22 07:23:32;;;;;;;25.93;7.93;;;27.70;53.50;;;;;;5059929;28;20279;-70
2023/08/22 07:26:00;;;;;;;51.10;9.93;;;27.70;53.50;;;;;;5063078;28;20284;-72
2023/08/22 07:28:27;;;;;;;29.77;8.53;;;27.70;53.60;;;;;;5071796;28;20235;-69
2023/08/22 07:30:54;;;;;;;20.73;6.87;;;27.70;53.60;;;;;;5072703;28;20204;-70
2023/08/22 07:33:21;;;;;;;50.80;9.93;;;27.70;53.70;;;;;;5064936;28;20210;-74
2023/08/22 07:35:48;;;;;;;36.40;8.93;;;27.70;53.70;;;;;;5057279;28;20283;-70
2023/08/22 07:38:15;;;;;;;32.70;8.30;;;27.70;53.70;;;;;;5076147;28;20207;-74
2023/08/22 07:40:43;;;;;;;36.97;9.03;;;27.70;53.70;;;;;;5073856;28;20551;-73
2023/08/22 07:43:10;;;;;;;29.33;8.43;;;27.70;53.70;;;;;;5069130;28;20195;-73
2023/08/22 07:45:37;;;;;;;22.30;7.50;;;27.70;53.80;;;;;;5074394;28;20566;-75
2023/08/22 07:48:05;;;;;;;27.50;8.30;;;27.70;53.80;;;;;;5070032;28;20295;-88
2023/08/22 07:50:32;;;;;;;39.23;9.80;;;27.70;53.80;;;;;;5065028;28;21007;-74
2023/08/22 07:52:59;;;;;;;22.77;8.27;;;27.60;54.60;;;;;;5078094;28;20199;-73
2023/08/22 07:55:26;;;;;;;23.40;7.63;;;27.60;54.60;;;;;;5076516;28;20345;-73
2023/08/22 07:57:55;;;;;;;27.50;8.83;;;27.60;54.30;;;;;;5078945;28;20701;-72
2023/08/22 08:00:22;;;;;;;62.47;12.23;;;27.70;54.40;;;;;;5075596;28;20243;-69
2023/08/22 08:02:49;;;;;;;27.50;7.90;;;27.70;54.20;;;;;;5082033;28;20282;-65
2023/08/22 08:05:16;;;;;;;28.93;8.47;;;27.70;54.30;;;;;;5069394;28;20203;-69
2023/08/22 08:07:43;;;;;;;31.57;9.07;;;27.70;54.30;;;;;;5067058;28;20629;-72
2023/08/22 08:10:11;;;;;;;25.97;7.70;;;27.70;54.30;;;;;;5068884;28;20210;-68
2023/08/22 08:12:38;;;;;;;27.17;8.13;;;27.70;54.20;;;;;;5080637;28;20204;-69
2023/08/22 08:15:07;;;;;;;25.30;7.80;;;27.70;54.30;;;;;;5066695;28;20251;-63
2023/08/22 08:17:34;;;;;;;37.90;8.97;;;27.70;54.40;;;;;;5067258;28;20200;-58
2023/08/22 08:20:03;;;;;;;26.87;8.77;;;27.70;54.40;;;;;;5077329;28;20318;-60
2023/08/22 08:22:29;;;;;;;46.10;9.70;;;27.80;54.60;;;;;;5066387;28;20619;-60
2023/08/22 08:24:56;;;;;;;45.90;9.87;;;27.80;54.50;;;;;;5060603;28;20199;-63
2023/08/22 08:27:23;;;;;;;28.33;7.63;;;27.80;54.60;;;;;;5086106;28;20203;-71
2023/08/22 08:29:50;;;;;;;46.23;8.87;;;27.80;54.60;;;;;;5068687;28;20199;-69
2023/08/22 08:32:19;;;;;;;29.93;8.00;;;27.80;54.90;;;;;;5052967;28;20311;-76
2023/08/22 08:34:46;;;;;;;20.97;7.83;;;27.80;55.00;;;;;;5065007;28;20547;-84
2023/08/22 08:37:13;;;;;;;26.27;7.90;;;27.80;55.00;;;;;;5064560;28;20283;-78
2023/08/22 08:39:39;;;;;;;23.53;7.40;;;27.80;54.90;;;;;;5067818;28;20326;-77
2023/08/22 08:42:13;;;;;;;28.93;8.23;;;27.80;54.90;;;;;;5066973;28;20203;-79
2023/08/22 08:44:41;;;;;;;29.10;8.20;;;27.80;55.00;;;;;;5083875;28;20214;-79
2023/08/22 08:47:09;;;;;;;33.17;8.60;;;27.90;54.80;;;;;;5080929;28;20286;-82
2023/08/22 08:49:38;;;;;;;21.60;6.87;;;27.90;54.80;;;;;;5061027;28;20206;-80
2023/08/22 08:52:08;;;;;;;35.03;8.20;;;27.90;54.90;;;;;;5068114;28;20256;-80
2023/08/22 08:54:35;;;;;;;25.63;7.33;;;27.90;54.80;;;;;;5084524;28;20703;-79
2023/08/22 08:57:03;;;;;;;26.57;7.13;;;27.90;54.90;;;;;;5089188;28;20195;-79
2023/08/22 08:59:30;;;;;;;23.33;6.80;;;27.90;54.90;;;;;;5088061;28;20227;-78
2023/08/22 09:01:59;;;;;;;32.07;7.83;;;27.90;54.80;;;;;;5084811;28;20291;-79
2023/08/22 09:04:26;;;;;;;26.90;7.23;;;28.00;55.40;;;;;;5082789;28;20199;-79
2023/08/22 09:06:54;;;;;;;23.40;7.00;;;28.00;54.80;;;;;;5073624;28;20279;-79
2023/08/22 09:09:24;;;;;;;35.87;8.00;;;28.00;54.80;;;;;;5067014;28;20629;-80
2023/08/22 09:11:51;;;;;;;57.67;10.13;;;28.00;54.90;;;;;;5065699;28;20281;-85
2023/08/22 09:14:21;;;;;;;25.63;7.73;;;28.00;54.90;;;;;;5066292;28;20222;-76
2023/08/22 09:16:48;;;;;;;36.80;8.40;;;28.00;54.80;;;;;;5081723;28;20196;-85
2023/08/22 09:19:15;;;;;;;34.43;8.27;;;28.00;54.80;;;;;;5067943;28;20223;-75
2023/08/22 09:21:58;;;;;;;22.53;7.23;;;28.00;54.80;;;;;;5067431;28;20286;-75
2023/08/22 09:24:26;;;;;;;60.83;10.87;;;28.00;55.10;;;;;;5063005;28;20225;-77
2023/08/22 09:26:54;;;;;;;26.93;7.63;;;28.00;54.90;;;;;;5067419;28;20199;-76
2023/08/22 09:29:28;;;;;;;27.40;8.00;;;28.00;54.80;;;;;;5067213;28;20979;-79
2023/08/22 09:32:03;;;;;;;35.40;8.43;;;28.10;55.10;;;;;;5065013;28;20207;-71
2023/08/22 09:34:31;;;;;;;55.67;10.27;;;28.10;55.00;;;;;;5068816;28;20241;-79
2023/08/22 09:36:59;;;;;;;66.03;11.47;;;28.10;55.00;;;;;;5062930;28;20586;-81
2023/08/22 09:39:29;;;;;;;25.77;7.63;;;28.10;55.30;;;;;;5076468;28;20317;-81
2023/08/22 09:41:58;;;;;;;37.60;9.33;;;28.20;55.30;;;;;;5062606;28;20242;-81
2023/08/22 09:44:25;;;;;;;36.57;9.13;;;28.10;55.30;;;;;;5065000;28;20238;-76
2023/08/22 09:46:53;;;;;;;48.17;10.23;;;28.20;55.30;;;;;;5071432;28;20199;-68
2023/08/22 09:49:21;;;;;;;42.83;9.97;;;28.20;55.30;;;;;;5066639;28;20203;-74
2023/08/22 09:51:49;;;;;;;34.60;9.20;;;28.20;55.30;;;;;;5087748;28;20203;-76
2023/08/22 09:54:18;;;;;;;27.00;8.50;;;28.30;55.30;;;;;;5082202;28;20293;-78
2023/08/22 09:56:46;;;;;;;41.70;9.30;;;28.30;55.30;;;;;;5069128;28;20813;-76
2023/08/22 09:59:14;;;;;;;42.87;9.83;;;28.30;55.30;;;;;;5071326;28;20281;-77
2023/08/22 10:01:42;;;;;;;33.93;8.63;;;28.30;55.20;;;;;;5058667;28;20629;-77
2023/08/22 10:04:09;;;;;;;36.27;8.17;;;28.30;55.20;;;;;;5064461;28;20667;-77
2023/08/22 10:06:37;;;;;;;28.70;7.90;;;28.30;55.10;;;;;;5066932;28;20290;-77
2023/08/22 10:09:08;;;;;;;29.37;7.43;;;28.40;55.10;;;;;;5064703;28;20283;-77
2023/08/22 10:11:41;;;;;;;23.33;6.57;;;28.40;55.10;;;;;;5065277;28;20570;-77
2023/08/22 10:14:13;;;;;;;28.20;7.00;;;28.40;55.10;;;;;;5063701;28;20215;-77
2023/08/22 10:16:40;;;;;;;51.10;8.63;;;28.40;55.10;;;;;;5063153;28;20660;-77
2023/08/22 10:19:10;;;;;;;29.33;6.80;;;28.50;55.10;;;;;;5062002;28;20207;-77
2023/08/22 10:21:47;;;;;;;28.40;6.60;;;28.50;55.10;;;;;;5072997;28;20685;-77
2023/08/22 10:24:22;;;;;;;50.63;9.00;;;28.50;55.20;;;;;;5065508;28;20286;-72
2023/08/22 10:27:00;;;;;;;25.97;6.67;;;28.50;55.10;;;;;;5070604;28;20199;-72
2023/08/22 10:29:31;;;;;;;24.90;5.97;;;28.60;55.20;;;;;;5073869;28;20319;-72
2023/08/22 10:32:19;;;;;;;24.80;5.83;;;28.60;55.20;;;;;;5084443;28;20199;-72
2023/08/22 10:35:19;;;;;;;27.27;6.43;;;28.60;55.20;;;;;;5091096;28;20254;-73
2023/08/22 10:37:48;;;;;;;30.23;6.77;;;28.70;55.30;;;;;;5088405;28;20209;-75
2023/08/22 10:40:36;;;;;;;28.67;6.50;;;28.70;55.10;;;;;;5085558;28;20320;-76
2023/08/22 10:43:05;;;;;;;29.23;6.43;;;28.70;55.20;;;;;;5078350;28;20199;-74
2023/08/22 10:45:50;;;;;;;27.30;6.17;;;28.80;55.20;;;;;;5069870;28;20199;-77
2023/08/22 10:48:19;;;;;;;32.70;6.60;;;28.80;55.20;;;;;;5070776;28;20203;-77
2023/08/22 10:50:48;;;;;;;23.80;6.27;;;28.80;55.10;;;;;;5071021;28;20258;-77
2023/08/22 10:53:21;;;;;;;47.63;8.03;;;28.90;55.30;;;;;;5067012;28;20287;-76
2023/08/22 10:55:49;;;;;;;46.80;8.17;;;28.90;55.40;;;;;;5065676;28;20200;-76
2023/08/22 10:58:39;;;;;;;35.67;7.10;;;29.00;55.60;;;;;;5068682;28;20679;-76
2023/08/22 11:01:08;;;;;;;23.27;5.53;;;29.00;56.00;;;;;;5063099;28;20241;-76
2023/08/22 11:03:35;;;;;;;31.13;6.40;;;29.10;55.90;;;;;;5069324;28;20254;-76
2023/08/22 11:06:10;;;;;;;39.47;7.30;;;29.20;55.90;;;;;;5064051;28;20567;-76
2023/08/22 11:08:37;;;;;;;29.03;5.97;;;29.40;55.90;;;;;;5061976;28;20199;-76
2023/08/22 11:11:05;;;;;;;27.47;5.80;;;29.50;55.80;;;;;;5068413;28;20295;-77
2023/08/22 11:13:40;;;;;;;32.03;6.13;;;29.60;55.60;;;;;;5067860;28;20314;-71
2023/08/22 11:16:12;;;;;;;26.30;5.73;;;29.70;55.40;;;;;;5068957;28;20199;-72
2023/08/22 11:18:40;;;;;;;34.30;6.63;;;29.80;55.30;;;;;;5064330;28;20212;-70
2023/08/22 11:21:08;;;;;;;26.70;6.17;;;29.90;55.20;;;;;;5063192;28;20705;-76
2023/08/22 11:23:36;;;;;;;44.00;7.53;;;30.00;55.10;;;;;;5067382;28;20198;-76
2023/08/22 11:26:03;;;;;;;41.33;7.23;;;30.00;54.90;;;;;;5068229;28;20231;-76
2023/08/22 11:28:34;;;;;;;47.03;7.40;;;30.10;54.90;;;;;;5067561;28;20282;-77
2023/08/22 11:31:04;;;;;;;30.87;6.03;;;30.10;54.80;;;;;;5068883;28;20282;-77
2023/08/22 11:33:36;;;;;;;77.13;10.33;;;30.20;54.70;;;;;;5067890;28;20215;-76
2023/08/22 11:36:04;;;;;;;31.07;6.13;;;30.20;54.60;;;;;;5067341;28;20282;-76
2023/08/22 11:38:34;;;;;;;28.27;6.27;;;30.20;54.50;;;;;;5067483;28;20207;-78
2023/08/22 11:41:04;;;;;;;28.90;5.90;;;30.20;54.50;;;;;;5067270;28;20231;-77
2023/08/22 11:43:31;;;;;;;44.00;7.33;;;30.20;54.50;;;;;;5067862;28;20239;-76
2023/08/22 11:45:59;;;;;;;45.73;7.80;;;30.20;54.60;;;;;;5066758;28;20265;-76
2023/08/22 11:48:28;;;;;;;32.97;6.33;;;30.20;54.60;;;;;;5067275;28;20199;-77
2023/08/22 11:50:55;;;;;;;27.73;5.83;;;30.20;54.70;;;;;;5080128;28;20293;-76
2023/08/22 11:53:29;;;;;;;28.43;6.03;;;30.30;54.90;;;;;;5083190;28;20196;-76
2023/08/22 11:55:56;;;;;;;31.17;5.97;;;30.30;55.10;;;;;;5069108;28;20201;-77
2023/08/22 11:58:23;;;;;;;26.83;5.77;;;30.40;55.10;;;;;;5069144;28;20294;-76
2023/08/22 12:00:54;;;;;;;32.93;5.87;;;30.50;55.20;;;;;;5082858;28;20588;-77
2023/08/22 12:03:21;;;;;;;43.83;6.93;;;30.50;55.30;;;;;;5084981;28;20644;-77
2023/08/22 12:05:50;;;;;;;31.87;5.97;;;30.60;55.30;;;;;;5068638;28;20286;-76
2023/08/22 12:08:18;;;;;;;27.60;5.57;;;30.70;55.20;;;;;;5068837;28;20196;-77
2023/08/22 12:10:47;;;;;;;36.50;6.68;;;30.80;55.10;;;;;;5067963;28;20572;-78
2023/08/22 12:13:14;;;;;;;29.77;6.57;;;30.90;54.90;;;;;;5068820;28;20306;-76
2023/08/22 12:15:41;;;;;;;35.27;6.53;;;31.00;54.80;;;;;;5068774;28;20283;-77
2023/08/22 12:18:09;;;;;;;29.77;5.80;;;31.00;54.70;;;;;;5068742;28;20291;-76
2023/08/22 12:20:38;;;;;;;60.95;8.98;;;31.10;54.50;;;;;;5065795;28;20233;-76
2023/08/22 12:23:07;;;;;;;49.90;7.90;;;31.20;54.60;;;;;;5057988;28;20199;-76
2023/08/22 12:25:35;;;;;;;60.35;8.57;;;31.20;54.60;;;;;;5056364;28;20226;-78
2023/08/22 12:28:03;;;;;;;63.28;9.32;;;31.30;54.50;;;;;;5056695;28;20203;-76
2023/08/22 12:30:33;;;;;;;31.98;6.30;;;31.30;54.90;;;;;;5062439;28;20195;-76
2023/08/22 12:33:02;;;;;;;44.55;7.68;;;31.40;54.20;;;;;;5065675;28;20202;-76
2023/08/22 12:35:30;;;;;;;32.90;6.07;;;31.40;54.10;;;;;;5067635;28;20215;-77
2023/08/22 12:37:57;;;;;;;28.08;5.43;;;31.40;54.00;;;;;;5065417;28;20204;-76
2023/08/22 12:40:25;;;;;;;35.97;6.73;;;31.50;53.90;;;;;;5068686;28;20306;-76
2023/08/22 12:42:52;;;;;;;46.75;7.55;;;31.50;53.80;;;;;;5064332;28;20200;-76